Time;durP1;ratioP1;P1;durP2;ratioP2;P2;SDS_P1;SDS_P2;PMS_P1;PMS_P2;Temp;Humidity;BMP_temperature;BMP_pressure;BME280_temperature;BME280_humidity;BME280_pressure;Samples;Min_cycle;Max_cycle;Signal;HPM_P1;HPM_P2
2021/08/13 04:32:19;;;;;;;11.50;8.60;;;19.20;99.90;;;;;;5332558;23;20507;-76
2021/08/13 04:34:48;;;;;;;11.60;8.90;;;19.20;99.90;;;;;;4967318;28;20407;-77
2021/08/13 04:37:15;;;;;;;10.97;8.90;;;19.20;99.90;;;;;;4962019;28;20432;-76
2021/08/13 04:39:41;;;;;;;10.37;9.30;;;19.20;99.90;;;;;;4956284;28;20466;-76
2021/08/13 04:42:07;;;;;;;13.83;9.47;;;19.20;99.90;;;;;;4958608;28;20640;-75
2021/08/13 04:44:33;;;;;;;9.60;8.67;;;19.20;99.90;;;;;;4973041;28;20211;-75
2021/08/13 04:46:59;;;;;;;12.30;8.80;;;19.20;99.90;;;;;;4971290;28;20484;-75
2021/08/13 04:49:25;;;;;;;15.90;9.70;;;19.20;99.90;;;;;;4974223;28;20424;-75
2021/08/13 04:51:51;;;;;;;12.80;8.93;;;19.20;99.90;;;;;;4973057;28;20448;-75
2021/08/13 04:54:17;;;;;;;11.47;9.00;;;19.20;99.90;;;;;;4975140;28;20423;-75
2021/08/13 04:56:43;;;;;;;14.33;10.20;;;19.20;99.90;;;;;;4974606;28;20419;-76
2021/08/13 04:59:08;;;;;;;9.57;8.57;;;19.20;99.90;;;;;;4970607;28;20196;-76
2021/08/13 05:01:34;;;;;;;10.67;8.50;;;19.20;99.90;;;;;;4975099;28;20215;-77
2021/08/13 05:04:00;;;;;;;11.77;9.93;;;19.20;99.90;;;;;;4971763;28;20207;-77
2021/08/13 05:06:25;;;;;;;12.00;8.80;;;19.20;99.90;;;;;;4975061;28;20529;-77
2021/08/13 05:08:51;;;;;;;10.40;9.30;;;19.30;99.90;;;;;;4971821;28;20237;-77
2021/08/13 05:11:17;;;;;;;13.80;10.00;;;19.40;99.90;;;;;;4973625;28;20214;-77
2021/08/13 05:13:43;;;;;;;13.17;9.47;;;19.40;99.90;;;;;;4970041;28;20274;-77
2021/08/13 05:16:08;;;;;;;16.50;8.90;;;19.30;99.90;;;;;;4974661;28;20234;-77
2021/08/13 05:18:34;;;;;;;13.67;10.70;;;19.30;99.90;;;;;;4972908;28;20176;-76
2021/08/13 05:21:00;;;;;;;11.57;9.50;;;19.30;99.90;;;;;;4957968;28;20748;-76
2021/08/13 05:23:26;;;;;;;13.70;10.50;;;19.40;99.90;;;;;;4961040;28;20546;-76
2021/08/13 05:25:52;;;;;;;11.90;9.20;;;19.40;99.90;;;;;;4974892;28;20427;-76
2021/08/13 05:28:17;;;;;;;18.20;10.67;;;19.50;99.90;;;;;;4971908;28;20199;-76
2021/08/13 05:30:43;;;;;;;11.70;9.40;;;19.60;99.90;;;;;;4973710;28;20204;-76
2021/08/13 05:33:09;;;;;;;10.70;9.10;;;19.60;99.90;;;;;;4971607;28;20457;-76
2021/08/13 05:35:37;;;;;;;12.27;10.97;;;19.70;99.90;;;;;;4972681;28;20679;-77
2021/08/13 05:38:04;;;;;;;15.40;9.77;;;20.00;99.90;;;;;;4974341;28;20168;-76
2021/08/13 05:40:29;;;;;;;12.90;10.37;;;20.30;99.90;;;;;;4969850;28;20442;-76
2021/08/13 05:42:59;;;;;;;13.30;9.50;;;20.50;99.90;;;;;;4973218;28;20471;-77
2021/08/13 05:45:26;;;;;;;12.37;9.80;;;20.60;99.90;;;;;;4970715;28;20227;-77
2021/08/13 05:47:52;;;;;;;13.10;11.13;;;20.60;99.90;;;;;;4974239;28;20408;-76
2021/08/13 05:50:17;;;;;;;10.30;9.03;;;20.60;99.90;;;;;;4971273;28;20443;-77
2021/08/13 05:52:44;;;;;;;22.23;9.97;;;20.60;99.90;;;;;;4973924;28;20934;-77
2021/08/13 05:55:11;;;;;;;11.60;9.63;;;20.70;99.90;;;;;;4972510;28;20194;-76
2021/08/13 05:57:37;;;;;;;12.80;9.70;;;21.20;99.90;;;;;;4971836;28;20439;-76
2021/08/13 06:00:04;;;;;;;12.23;9.60;;;21.50;99.90;;;;;;4972579;28;20695;-77
2021/08/13 06:02:30;;;;;;;13.97;10.77;;;21.90;99.90;;;;;;4971390;28;20239;-77
2021/08/13 06:04:57;;;;;;;14.20;9.90;;;22.40;99.90;;;;;;4972185;28;20411;-77
2021/08/13 06:07:23;;;;;;;13.13;10.23;;;22.80;99.90;;;;;;4971703;28;20187;-77
2021/08/13 06:09:48;;;;;;;12.40;9.93;;;23.20;99.90;;;;;;4973888;28;20403;-77
2021/08/13 06:12:14;;;;;;;13.50;11.10;;;23.60;99.90;;;;;;4956949;28;20463;-76
2021/08/13 06:14:40;;;;;;;11.10;9.70;;;24.20;99.90;;;;;;4972623;28;20259;-77
2021/08/13 06:17:07;;;;;;;11.80;9.57;;;24.50;99.90;;;;;;4970513;28;20197;-76
2021/08/13 06:19:33;;;;;;;16.23;10.30;;;24.80;99.90;;;;;;4973943;28;20443;-77
2021/08/13 06:21:59;;;;;;;13.20;9.17;;;24.90;99.90;;;;;;4968464;28;20494;-77
2021/08/13 06:24:26;;;;;;;11.73;10.07;;;24.70;99.90;;;;;;4972158;28;20250;-76
2021/08/13 06:26:52;;;;;;;19.47;9.37;;;24.40;99.90;;;;;;4971458;28;20442;-77
2021/08/13 06:29:20;;;;;;;10.70;9.10;;;24.10;99.90;;;;;;4974044;28;20419;-77
2021/08/13 06:31:47;;;;;;;19.83;10.20;;;23.90;99.90;;;;;;4970149;28;20466;-77
2021/08/13 06:34:13;;;;;;;15.53;11.00;;;23.70;99.90;;;;;;4959020;28;20444;-77
2021/08/13 06:36:39;;;;;;;13.43;9.50;;;23.60;99.90;;;;;;4956101;28;20443;-76
2021/08/13 06:39:04;;;;;;;15.10;10.57;;;23.90;99.90;;;;;;4971192;28;20435;-76
2021/08/13 06:41:30;;;;;;;11.97;9.40;;;24.10;99.90;;;;;;4972666;28;20202;-76
2021/08/13 06:43:55;;;;;;;10.10;9.20;;;24.20;99.90;;;;;;4965563;28;20215;-76
2021/08/13 06:46:21;;;;;;;14.53;8.77;;;24.30;99.90;;;;;;4973190;28;20247;-76
2021/08/13 06:48:47;;;;;;;11.13;9.40;;;24.30;99.90;;;;;;4971376;28;20249;-76
2021/08/13 06:51:12;;;;;;;9.50;8.60;;;24.40;99.90;;;;;;4973030;28;20187;-76
2021/08/13 06:53:38;;;;;;;11.23;9.07;;;24.50;99.90;;;;;;4968830;28;20251;-76
2021/08/13 06:56:04;;;;;;;12.27;8.53;;;24.70;99.90;;;;;;4973120;28;20270;-76
2021/08/13 06:58:29;;;;;;;9.57;8.27;;;25.10;99.90;;;;;;4971843;28;20618;-76
2021/08/13 07:00:55;;;;;;;12.10;8.37;;;25.60;99.90;;;;;;4971767;28;20203;-76
2021/08/13 07:03:21;;;;;;;12.50;9.10;;;26.00;99.90;;;;;;4970759;28;20231;-76
2021/08/13 07:05:46;;;;;;;11.90;8.30;;;26.40;99.90;;;;;;4971943;28;20188;-76
2021/08/13 07:08:12;;;;;;;15.53;9.80;;;26.90;99.90;;;;;;4971365;28;20180;-77
2021/08/13 07:10:39;;;;;;;15.73;9.30;;;26.70;99.90;;;;;;4973112;28;20199;-76
2021/08/13 07:13:05;;;;;;;12.27;9.10;;;27.00;99.90;;;;;;4968872;28;20439;-76
2021/08/13 07:15:30;;;;;;;10.70;9.70;;;27.30;99.90;;;;;;4973013;28;20423;-76
2021/08/13 07:17:56;;;;;;;12.20;10.10;;;27.60;99.90;;;;;;4972846;28;21047;-76
2021/08/13 07:20:23;;;;;;;10.40;9.30;;;27.70;99.90;;;;;;4970456;23;20704;-76
2021/08/13 07:22:51;;;;;;;11.00;9.23;;;27.80;99.90;;;;;;4916009;29;20201;-77
2021/08/13 07:25:24;;;;;;;11.00;9.83;;;27.90;99.90;;;;;;4914515;29;20444;-76
2021/08/13 07:27:50;;;;;;;12.17;9.87;;;28.30;99.90;;;;;;4912986;29;20442;-77
2021/08/13 07:30:18;;;;;;;12.60;10.30;;;28.50;99.90;;;;;;4905069;29;20443;-77
2021/08/13 07:32:48;;;;;;;10.50;9.00;;;28.80;99.90;;;;;;4905083;29;20507;-77
2021/08/13 07:35:15;;;;;;;10.10;8.93;;;29.20;99.90;;;;;;4904500;29;20472;-77
2021/08/13 07:37:41;;;;;;;9.30;8.33;;;29.40;99.90;;;;;;4914822;29;20911;-77
2021/08/13 07:40:09;;;;;;;11.07;8.93;;;29.50;99.90;;;;;;4915133;29;20844;-77
2021/08/13 07:42:36;;;;;;;10.00;9.00;;;29.90;99.90;;;;;;4911634;29;21067;-78
2021/08/13 07:45:05;;;;;;;9.60;8.70;;;30.10;99.90;;;;;;4912304;29;20958;-77
2021/08/13 07:47:32;;;;;;;9.10;8.20;;;30.20;99.90;;;;;;4900876;29;20514;-77
2021/08/13 07:49:59;;;;;;;10.20;9.20;;;30.40;99.90;;;;;;4898960;29;20445;-77
2021/08/13 07:52:28;;;;;;;11.13;8.67;;;30.50;99.90;;;;;;4902352;29;20502;-78
2021/08/13 07:54:54;;;;;;;11.07;7.67;;;30.60;99.90;;;;;;4901970;29;20501;-78
2021/08/13 07:57:21;;;;;;;9.23;8.27;;;30.60;99.90;;;;;;4906881;29;20469;-77
2021/08/13 07:59:47;;;;;;;8.47;7.13;;;30.90;99.90;;;;;;4906338;29;20418;-78
2021/08/13 08:02:13;;;;;;;9.77;8.63;;;31.20;99.90;;;;;;4911208;29;20469;-78
2021/08/13 08:04:40;;;;;;;9.30;8.00;;;31.10;99.90;;;;;;4899962;29;20431;-78
2021/08/13 08:07:10;;;;;;;9.67;8.10;;;30.80;99.90;;;;;;4909168;29;20442;-77
2021/08/13 08:09:37;;;;;;;11.23;8.10;;;30.60;99.90;;;;;;4901734;29;20419;-78
2021/08/13 08:12:04;;;;;;;9.47;8.47;;;30.90;99.90;;;;;;4902980;29;20984;-78
2021/08/13 08:14:32;;;;;;;8.50;7.60;;;31.00;99.90;;;;;;4900373;29;20438;-78
2021/08/13 08:16:59;;;;;;;9.83;7.80;;;31.50;99.90;;;;;;4909278;29;20481;-78
2021/08/13 08:19:26;;;;;;;9.93;8.57;;;31.50;99.90;;;;;;4918081;29;20434;-78
2021/08/13 08:21:53;;;;;;;13.87;10.30;;;31.70;99.90;;;;;;4920737;29;20493;-78
2021/08/13 08:24:18;;;;;;;13.70;8.20;;;31.50;99.90;;;;;;4918976;29;20507;-78
2021/08/13 08:26:47;;;;;;;13.20;9.50;;;31.40;99.90;;;;;;4919858;29;20443;-78
2021/08/13 08:29:14;;;;;;;10.57;8.93;;;31.40;99.90;;;;;;4912609;29;20194;-78
2021/08/13 08:32:42;;;;;;;10.50;9.50;;;31.70;99.90;;;;;;4921555;29;20859;-78
2021/08/13 08:35:17;;;;;;;11.67;8.70;;;31.90;99.90;;;;;;4917085;29;20435;-78
2021/08/13 08:37:57;;;;;;;9.30;8.40;;;32.30;99.90;;;;;;4907824;29;20434;-78
2021/08/13 08:40:30;;;;;;;9.70;8.60;;;32.50;99.90;;;;;;4921855;29;20437;-78
2021/08/13 08:42:58;;;;;;;13.13;10.47;;;32.90;99.90;;;;;;4919176;29;20486;-78
2021/08/13 08:45:26;;;;;;;16.63;9.53;;;32.70;99.90;;;;;;4922887;29;20469;-78
2021/08/13 08:48:03;;;;;;;11.30;9.57;;;32.50;99.90;;;;;;4920922;29;20441;-78
2021/08/13 08:50:30;;;;;;;9.80;8.77;;;32.80;99.90;;;;;;4918950;29;20815;-78
2021/08/13 08:53:02;;;;;;;11.33;9.30;;;32.90;99.90;;;;;;4919708;29;20439;-78
2021/08/13 08:55:32;;;;;;;15.90;9.43;;;32.30;99.90;;;;;;4911077;29;20446;-78
2021/08/13 08:58:01;;;;;;;14.37;8.93;;;31.90;99.90;;;;;;4906425;29;20473;-78
2021/08/13 09:00:27;;;;;;;15.17;9.20;;;32.10;99.90;;;;;;4922841;29;20437;-78
2021/08/13 09:02:57;;;;;;;11.40;9.37;;;32.20;99.90;;;;;;4921762;29;20466;-78
2021/08/13 09:05:26;;;;;;;10.30;9.30;;;32.60;99.90;;;;;;4918965;29;20429;-78
2021/08/13 09:07:51;;;;;;;15.70;9.07;;;33.00;99.90;;;;;;4919734;29;20418;-77
2021/08/13 09:10:17;;;;;;;14.70;9.47;;;33.40;99.90;;;;;;4910053;29;20430;-77
2021/08/13 09:12:43;;;;;;;11.43;8.90;;;33.80;99.90;;;;;;4901505;29;20186;-77
2021/08/13 09:15:25;;;;;;;9.93;8.90;;;34.10;99.90;;;;;;4910191;29;20669;-77
2021/08/13 09:18:09;;;;;;;8.70;7.73;;;34.20;99.90;;;;;;4915831;29;20433;-77
2021/08/13 09:20:40;;;;;;;10.73;8.80;;;34.30;99.90;;;;;;4913869;29;20840;-77
2021/08/13 09:23:06;;;;;;;11.77;8.20;;;34.40;99.90;;;;;;4916944;29;20458;-77
2021/08/13 09:25:31;;;;;;;8.87;7.70;;;34.40;99.90;;;;;;4913866;29;21021;-77
2021/08/13 09:27:58;;;;;;;16.07;9.47;;;34.60;99.90;;;;;;4914804;29;20461;-77
2021/08/13 09:30:24;;;;;;;11.10;9.10;;;34.90;99.90;;;;;;4907054;29;20534;-77
2021/08/13 09:33:05;;;;;;;9.83;8.50;;;35.10;99.90;;;;;;4904673;29;20647;-78
2021/08/13 09:35:39;;;;;;;14.50;8.87;;;35.40;99.90;;;;;;4914306;29;20550;-78
2021/08/13 09:38:15;;;;;;;9.93;8.90;;;35.60;99.90;;;;;;4920014;29;20413;-78
2021/08/13 09:40:45;;;;;;;9.60;8.13;;;35.50;99.90;;;;;;4917628;29;20513;-78
2021/08/13 09:43:11;;;;;;;11.00;8.07;;;35.60;99.90;;;;;;4907080;29;20478;-78
2021/08/13 09:45:38;;;;;;;11.43;8.30;;;35.70;99.90;;;;;;4916626;29;20442;-78
2021/08/13 09:48:04;;;;;;;14.53;7.80;;;35.60;99.90;;;;;;4919804;29;20779;-78
2021/08/13 09:50:40;;;;;;;12.17;8.07;;;35.60;99.90;;;;;;4917392;29;20453;-78
2021/08/13 09:53:09;;;;;;;10.10;8.20;;;35.80;99.90;;;;;;4916807;29;20449;-79
2021/08/13 09:55:35;;;;;;;10.30;7.50;;;35.90;99.90;;;;;;4918380;29;20426;-78
2021/08/13 09:58:08;;;;;;;8.90;8.00;;;36.00;99.90;;;;;;4918770;29;20449;-79
2021/08/13 10:00:45;;;;;;;9.10;7.03;;;36.20;99.90;;;;;;4920618;29;20497;-79
2021/08/13 10:03:18;;;;;;;9.90;8.57;;;36.50;99.90;;;;;;4916627;29;20532;-79
2021/08/13 10:05:59;;;;;;;14.20;8.17;;;36.70;99.90;;;;;;4920671;29;20484;-79
2021/08/13 10:08:41;;;;;;;9.50;8.50;;;36.30;99.90;;;;;;4913573;29;20935;-77
2021/08/13 10:11:13;;;;;;;8.17;7.40;;;36.40;99.90;;;;;;4917131;29;20457;-77
2021/08/13 10:13:42;;;;;;;8.27;7.50;;;36.50;99.90;;;;;;4901313;29;20444;-77
2021/08/13 10:16:08;;;;;;;8.93;7.50;;;36.60;99.90;;;;;;4897427;29;20547;-77
2021/08/13 10:18:36;;;;;;;11.03;8.47;;;36.90;99.90;;;;;;4911365;29;20528;-77
2021/08/13 10:21:02;;;;;;;9.30;8.20;;;36.50;99.90;;;;;;4916083;29;20799;-77
2021/08/13 10:23:28;;;;;;;9.30;7.77;;;36.60;99.90;;;;;;4913807;29;20468;-77
2021/08/13 10:25:57;;;;;;;8.23;7.53;;;36.60;99.90;;;;;;4916351;29;20174;-77
2021/08/13 10:28:23;;;;;;;9.97;8.97;;;36.10;99.90;;;;;;4912801;29;20438;-77
2021/08/13 10:30:49;;;;;;;10.33;9.30;;;36.10;99.90;;;;;;4916013;29;20961;-77
2021/08/13 10:33:15;;;;;;;7.90;7.20;;;36.00;99.90;;;;;;4911116;29;20568;-77
2021/08/13 10:35:44;;;;;;;13.00;8.10;;;35.70;99.90;;;;;;4915308;29;20512;-77
2021/08/13 10:38:11;;;;;;;9.30;7.40;;;35.80;99.90;;;;;;4914997;29;20193;-77
2021/08/13 10:40:38;;;;;;;8.83;8.03;;;36.00;99.90;;;;;;4916556;29;20806;-77
2021/08/13 10:43:05;;;;;;;9.40;8.43;;;36.00;99.90;;;;;;4909547;29;20513;-77
2021/08/13 10:45:34;;;;;;;11.40;9.13;;;36.10;99.90;;;;;;4910345;29;20441;-77
2021/08/13 10:48:14;;;;;;;16.90;9.50;;;36.20;99.90;;;;;;4914891;29;20437;-77
2021/08/13 10:50:41;;;;;;;9.20;8.37;;;36.10;99.90;;;;;;4914558;29;20513;-77
2021/08/13 10:53:32;;;;;;;11.40;8.90;;;36.00;99.90;;;;;;4915895;29;20449;-77
2021/08/13 10:56:03;;;;;;;9.73;8.53;;;36.50;99.90;;;;;;4914233;29;20469;-77
2021/08/13 10:58:41;;;;;;;12.50;9.50;;;36.20;99.90;;;;;;4911155;29;20441;-78
2021/08/13 11:01:14;;;;;;;14.20;9.10;;;35.70;99.90;;;;;;4916415;29;20501;-77
2021/08/13 11:04:04;;;;;;;9.00;8.10;;;34.40;99.90;;;;;;4915839;29;20472;-77
2021/08/13 11:06:36;;;;;;;8.23;7.50;;;34.60;99.90;;;;;;4909247;29;20516;-77
2021/08/13 11:09:09;;;;;;;9.60;8.60;;;34.80;99.90;;;;;;4914778;29;20418;-78
2021/08/13 11:11:55;;;;;;;8.60;7.77;;;35.10;99.90;;;;;;4918902;29;20450;-78
2021/08/13 11:14:28;;;;;;;8.53;7.83;;;35.20;99.90;;;;;;4904960;29;20509;-78
2021/08/13 11:16:55;;;;;;;10.40;8.83;;;35.30;99.90;;;;;;4914685;29;20433;-77
2021/08/13 11:19:23;;;;;;;11.43;7.10;;;35.40;99.90;;;;;;4915420;29;20422;-77
2021/08/13 11:21:55;;;;;;;8.73;7.43;;;35.60;99.90;;;;;;4895860;29;20486;-77
2021/08/13 11:24:49;;;;;;;8.60;7.77;;;35.10;99.90;;;;;;4895326;29;20837;-77
2021/08/13 11:27:24;;;;;;;9.60;8.60;;;35.20;99.90;;;;;;4911854;29;20505;-77
2021/08/13 11:29:50;;;;;;;10.20;8.23;;;35.40;99.90;;;;;;4909101;29;20536;-77
2021/08/13 11:32:18;;;;;;;11.97;8.33;;;35.60;99.90;;;;;;4904832;29;20560;-77
2021/08/13 11:35:08;;;;;;;13.73;8.20;;;35.30;99.90;;;;;;4917004;29;20953;-77
2021/08/13 11:37:51;;;;;;;11.10;7.87;;;35.10;99.90;;;;;;4918155;29;20805;-78
2021/08/13 11:40:17;;;;;;;8.50;7.70;;;34.90;99.90;;;;;;4920568;29;20413;-78
2021/08/13 11:42:51;;;;;;;8.67;7.37;;;34.90;99.90;;;;;;4916663;29;20478;-78
2021/08/13 11:45:20;;;;;;;9.07;8.10;;;35.10;99.90;;;;;;4913819;29;20444;-77
2021/08/13 11:47:56;;;;;;;9.57;7.93;;;34.60;99.90;;;;;;4919890;29;20435;-80
2021/08/13 11:50:26;;;;;;;24.67;8.00;;;34.30;99.90;;;;;;4911674;29;20443;-80
2021/08/13 11:52:52;;;;;;;7.83;7.03;;;34.00;99.90;;;;;;4926542;29;20436;-80
2021/08/13 11:55:26;;;;;;;9.00;8.10;;;34.10;99.90;;;;;;4929430;29;20449;-80
2021/08/13 11:57:54;;;;;;;10.30;7.50;;;34.40;99.90;;;;;;4927575;29;20189;-80
2021/08/13 12:00:31;;;;;;;17.33;10.23;;;34.40;99.90;;;;;;4927542;29;20513;-80
2021/08/13 12:03:02;;;;;;;13.70;8.23;;;34.30;99.90;;;;;;4926430;29;20461;-80
2021/08/13 12:05:32;;;;;;;15.30;7.20;;;34.30;99.90;;;;;;4929243;29;20425;-80
2021/08/13 12:08:05;;;;;;;12.37;9.03;;;34.20;99.90;;;;;;4926621;29;20450;-80
2021/08/13 12:10:37;;;;;;;9.20;8.30;;;33.80;99.90;;;;;;4927406;29;20442;-79
2021/08/13 12:13:08;;;;;;;11.17;8.03;;;33.80;99.90;;;;;;4924609;29;20445;-79
2021/08/13 12:15:40;;;;;;;7.93;7.23;;;33.30;99.90;;;;;;4911763;29;21026;-79
2021/08/13 12:18:10;;;;;;;7.90;7.03;;;33.40;99.90;;;;;;4916160;29;20934;-79
2021/08/13 12:20:38;;;;;;;9.33;6.97;;;33.20;99.90;;;;;;4925403;29;20525;-79
2021/08/13 12:23:10;;;;;;;9.00;8.10;;;33.20;99.90;;;;;;4922982;29;20470;-79
2021/08/13 12:25:43;;;;;;;16.33;8.77;;;33.20;99.90;;;;;;4924854;29;20415;-79
2021/08/13 12:28:13;;;;;;;15.57;9.03;;;33.30;99.90;;;;;;4923168;29;20565;-79
2021/08/13 12:30:43;;;;;;;12.03;9.17;;;33.40;99.90;;;;;;4924228;29;20461;-79
2021/08/13 12:33:19;;;;;;;12.70;8.00;;;32.90;99.90;;;;;;4919792;29;20454;-79
2021/08/13 12:35:49;;;;;;;13.30;9.23;;;32.40;99.90;;;;;;4923597;29;20415;-79
2021/08/13 12:38:16;;;;;;;9.90;8.20;;;32.30;99.90;;;;;;4922706;29;20590;-79
2021/08/13 12:40:53;;;;;;;12.97;9.10;;;32.10;99.90;;;;;;4920562;29;20544;-79
2021/08/13 12:43:21;;;;;;;10.40;8.50;;;32.20;99.90;;;;;;4920098;29;20563;-79
2021/08/13 12:45:51;;;;;;;12.83;9.47;;;32.40;99.90;;;;;;4922951;29;20503;-79
2021/08/13 12:48:19;;;;;;;9.60;8.60;;;32.50;99.90;;;;;;4922451;29;20525;-79
2021/08/13 12:51:07;;;;;;;9.40;7.87;;;32.50;99.90;;;;;;4919560;29;20977;-79
2021/08/13 12:53:39;;;;;;;12.13;7.83;;;32.40;99.90;;;;;;4923140;29;20418;-79
2021/08/13 12:56:22;;;;;;;10.60;8.00;;;32.40;99.90;;;;;;4922152;29;20442;-79
2021/08/13 12:58:52;;;;;;;8.63;7.60;;;32.40;99.90;;;;;;4920894;29;20453;-79
2021/08/13 13:01:30;;;;;;;9.07;7.70;;;32.20;99.90;;;;;;4919844;29;20481;-79
2021/08/13 13:04:13;;;;;;;11.33;8.17;;;32.20;99.90;;;;;;4921652;29;20827;-79
2021/08/13 13:06:41;;;;;;;12.83;7.80;;;32.20;99.90;;;;;;4904588;29;20478;-79
2021/08/13 13:09:08;;;;;;;18.30;13.73;;;32.10;99.90;;;;;;4902274;29;20451;-79
2021/08/13 13:11:35;;;;;;;8.40;7.60;;;32.10;99.90;;;;;;4916413;29;20521;-78
2021/08/13 13:14:04;;;;;;;7.70;6.90;;;31.90;99.90;;;;;;4910598;29;20493;-78
2021/08/13 13:16:33;;;;;;;9.57;7.53;;;31.80;99.90;;;;;;4898614;29;20529;-77
2021/08/13 13:19:30;;;;;;;12.07;7.40;;;31.70;99.90;;;;;;4898685;29;20946;-77
2021/08/13 13:22:21;;;;;;;14.93;7.40;;;31.70;99.90;;;;;;4902970;29;20483;-77
2021/08/13 13:25:10;;;;;;;9.90;7.97;;;31.60;99.90;;;;;;4915493;29;20497;-77
2021/08/13 13:27:59;;;;;;;11.47;7.07;;;31.50;99.90;;;;;;4914975;29;20436;-77
2021/08/13 13:30:31;;;;;;;7.20;6.53;;;31.40;99.90;;;;;;4898774;29;20404;-77
2021/08/13 13:32:59;;;;;;;13.60;7.17;;;31.20;99.90;;;;;;4912712;29;20536;-77
2021/08/13 13:35:27;;;;;;;7.57;6.47;;;31.20;99.90;;;;;;4915693;29;20425;-77
2021/08/13 13:37:57;;;;;;;8.27;7.20;;;31.10;99.90;;;;;;4914805;29;20438;-77
2021/08/13 13:40:25;;;;;;;9.67;6.80;;;31.20;99.90;;;;;;4915669;29;20894;-77
2021/08/13 13:42:53;;;;;;;9.17;6.70;;;31.40;99.90;;;;;;4912314;29;20472;-77
2021/08/13 13:45:24;;;;;;;11.93;7.87;;;31.50;99.90;;;;;;4906478;29;20442;-77
2021/08/13 13:47:55;;;;;;;12.53;5.93;;;31.40;99.90;;;;;;4913228;29;20434;-77
2021/08/13 13:50:29;;;;;;;7.87;6.30;;;31.50;99.90;;;;;;4916648;29;20790;-77
2021/08/13 13:52:55;;;;;;;7.73;6.53;;;31.30;99.90;;;;;;4913457;29;20442;-77
2021/08/13 13:55:25;;;;;;;15.23;6.83;;;31.00;99.90;;;;;;4916739;29;20418;-77
2021/08/13 13:57:51;;;;;;;14.03;7.30;;;30.90;99.90;;;;;;4910086;29;20449;-77
2021/08/13 14:00:19;;;;;;;11.67;7.17;;;30.80;99.90;;;;;;4913763;29;20456;-77
2021/08/13 14:02:49;;;;;;;9.50;7.17;;;30.80;99.90;;;;;;4914958;29;20469;-77
2021/08/13 14:05:18;;;;;;;8.63;6.90;;;30.80;99.90;;;;;;4914764;29;20799;-77
2021/08/13 14:07:49;;;;;;;9.50;7.07;;;30.80;99.90;;;;;;4914386;29;20434;-76
2021/08/13 14:10:18;;;;;;;7.90;7.30;;;30.90;99.90;;;;;;4916301;29;20865;-76
2021/08/13 14:12:48;;;;;;;10.70;7.33;;;30.80;99.90;;;;;;4911335;29;20846;-77
2021/08/13 14:15:16;;;;;;;10.60;7.40;;;30.90;99.90;;;;;;4913300;29;20469;-77
2021/08/13 14:17:42;;;;;;;22.17;6.63;;;30.80;99.90;;;;;;4913747;29;20494;-77
2021/08/13 14:20:11;;;;;;;7.13;5.70;;;30.90;99.90;;;;;;4914868;29;20935;-76
2021/08/13 14:22:38;;;;;;;8.77;6.53;;;30.70;99.90;;;;;;4916175;29;20469;-77
2021/08/13 14:25:06;;;;;;;7.43;6.40;;;30.60;99.90;;;;;;4906542;29;20543;-77
2021/08/13 14:27:33;;;;;;;8.30;7.10;;;30.70;99.90;;;;;;4915141;29;20839;-76
2021/08/13 14:29:59;;;;;;;11.87;6.10;;;30.60;99.90;;;;;;4913968;29;20430;-77
2021/08/13 14:32:25;;;;;;;10.07;7.43;;;30.70;99.90;;;;;;4915813;29;20441;-76
2021/08/13 14:34:51;;;;;;;9.07;6.77;;;30.50;99.90;;;;;;4913395;29;20178;-76
2021/08/13 14:37:17;;;;;;;10.60;6.50;;;30.40;99.90;;;;;;4916041;29;20559;-77
2021/08/13 14:39:42;;;;;;;9.90;6.87;;;30.40;99.90;;;;;;4914900;29;20516;-75
2021/08/13 14:42:09;;;;;;;8.23;6.43;;;30.40;99.90;;;;;;4915762;29;20204;-77
2021/08/13 14:44:36;;;;;;;8.50;6.73;;;30.30;99.90;;;;;;4906031;29;20631;-77
2021/08/13 14:47:04;;;;;;;9.27;6.93;;;30.30;99.90;;;;;;4916031;29;20789;-78
2021/08/13 14:49:30;;;;;;;15.40;6.97;;;30.30;99.90;;;;;;4912034;29;20435;-77
2021/08/13 14:51:57;;;;;;;13.97;6.50;;;30.40;99.90;;;;;;4897332;29;20466;-78
2021/08/13 14:54:25;;;;;;;8.50;6.17;;;30.40;99.90;;;;;;4898202;29;20454;-78
2021/08/13 14:56:52;;;;;;;7.20;6.40;;;30.50;99.90;;;;;;4912366;29;20448;-78
2021/08/13 14:59:19;;;;;;;9.63;7.00;;;30.50;99.90;;;;;;4905962;29;20977;-78
2021/08/13 15:01:49;;;;;;;8.93;7.57;;;30.40;99.90;;;;;;4929951;29;20446;-78
2021/08/13 15:04:17;;;;;;;7.93;6.83;;;30.40;99.90;;;;;;4915829;29;20548;-78
2021/08/13 15:06:44;;;;;;;8.30;6.50;;;30.40;99.90;;;;;;4913321;29;20446;-78
2021/08/13 15:09:11;;;;;;;10.73;7.33;;;30.40;99.90;;;;;;4916042;29;20942;-78
2021/08/13 15:11:39;;;;;;;8.23;7.37;;;30.20;99.90;;;;;;4912080;29;20560;-77
2021/08/13 15:14:09;;;;;;;7.27;6.53;;;30.10;99.90;;;;;;4913209;29;20442;-77
2021/08/13 15:16:39;;;;;;;13.10;7.90;;;30.00;99.90;;;;;;4912353;29;21010;-77
2021/08/13 15:19:12;;;;;;;7.80;6.80;;;30.10;99.90;;;;;;4896572;29;20454;-77
2021/08/13 15:21:43;;;;;;;7.00;6.40;;;30.00;99.90;;;;;;4906122;29;20488;-77
2021/08/13 15:24:12;;;;;;;9.60;6.43;;;29.90;99.90;;;;;;4915806;29;21005;-78
2021/08/13 15:26:40;;;;;;;9.83;7.20;;;30.00;99.90;;;;;;4906788;29;20447;-78
2021/08/13 15:29:06;;;;;;;8.10;6.87;;;29.90;99.90;;;;;;4908909;29;20427;-78
2021/08/13 15:31:32;;;;;;;9.10;7.10;;;29.80;99.90;;;;;;4913501;29;20476;-78
2021/08/13 15:33:58;;;;;;;9.73;7.60;;;29.70;99.90;;;;;;4915701;29;20414;-77
2021/08/13 15:36:25;;;;;;;8.53;6.83;;;29.70;99.90;;;;;;4914468;29;20532;-77
2021/08/13 15:38:51;;;;;;;9.33;6.80;;;29.70;99.90;;;;;;4911908;29;20574;-77
2021/08/13 15:41:17;;;;;;;9.10;7.37;;;29.70;99.90;;;;;;4914652;29;20560;-77
2021/08/13 15:43:43;;;;;;;9.70;7.37;;;29.60;99.90;;;;;;4909938;29;20229;-77
2021/08/13 15:46:16;;;;;;;8.47;7.53;;;29.60;99.90;;;;;;4913762;29;20512;-78
2021/08/13 15:48:42;;;;;;;9.60;7.53;;;29.50;99.90;;;;;;4905412;29;20446;-78
2021/08/13 15:51:08;;;;;;;7.60;6.40;;;29.50;99.90;;;;;;4896557;29;20915;-77
2021/08/13 15:53:34;;;;;;;8.00;7.30;;;29.50;99.90;;;;;;4904830;29;20452;-77
2021/08/13 15:56:00;;;;;;;7.67;6.70;;;29.40;99.90;;;;;;4914907;29;20517;-77
2021/08/13 15:58:25;;;;;;;9.30;8.37;;;29.40;99.90;;;;;;4905669;29;20242;-77
2021/08/13 16:03:19;;;;;;;9.50;7.73;;;29.30;99.90;;;;;;4925602;29;20237;-81
2021/08/13 16:05:44;;;;;;;10.17;8.00;;;29.20;99.90;;;;;;4935651;29;20421;-81
2021/08/13 16:08:10;;;;;;;9.37;8.47;;;29.20;99.90;;;;;;4936159;29;20572;-81
2021/08/13 16:10:35;;;;;;;8.73;7.87;;;29.10;99.90;;;;;;4933841;29;20192;-81
2021/08/13 16:13:04;;;;;;;10.53;7.23;;;29.10;99.90;;;;;;4919394;29;20194;-81
2021/08/13 16:15:29;;;;;;;11.90;7.30;;;29.10;99.90;;;;;;4919561;29;20240;-81
2021/08/13 16:17:55;;;;;;;11.40;7.57;;;29.00;99.90;;;;;;4920133;29;20418;-80
2021/08/13 16:20:20;;;;;;;10.03;7.50;;;29.00;99.90;;;;;;4908057;29;20194;-82
2021/08/13 16:22:46;;;;;;;10.07;8.03;;;29.00;99.90;;;;;;4919672;29;20214;-81
2021/08/13 16:25:12;;;;;;;9.17;8.23;;;28.90;99.90;;;;;;4913947;29;20182;-81
2021/08/13 16:27:37;;;;;;;9.70;7.57;;;28.90;99.90;;;;;;4919958;29;20182;-81
2021/08/13 16:30:04;;;;;;;8.57;6.97;;;28.90;99.90;;;;;;4917454;29;20189;-81
2021/08/13 16:32:29;;;;;;;9.97;8.00;;;28.80;99.90;;;;;;4919402;29;20201;-81
2021/08/13 16:34:55;;;;;;;12.23;8.47;;;28.70;99.90;;;;;;4918207;29;20438;-81
2021/08/13 16:37:20;;;;;;;9.50;7.03;;;28.80;99.90;;;;;;4919115;29;20182;-81
2021/08/13 16:39:46;;;;;;;8.83;8.03;;;28.70;99.90;;;;;;4917662;29;20183;-81
2021/08/13 16:42:11;;;;;;;9.40;7.50;;;28.60;99.90;;;;;;4917290;29;20269;-81
2021/08/13 16:44:37;;;;;;;10.40;7.57;;;28.60;99.90;;;;;;4913921;29;20331;-82
2021/08/13 16:47:03;;;;;;;8.50;7.70;;;28.50;99.90;;;;;;4920436;29;20178;-81
2021/08/13 16:49:29;;;;;;;11.57;8.77;;;28.50;99.90;;;;;;4917881;29;20225;-81
2021/08/13 16:51:54;;;;;;;8.90;7.87;;;28.40;99.90;;;;;;4915002;29;20485;-81
2021/08/13 16:54:20;;;;;;;12.00;8.50;;;28.30;99.90;;;;;;4918318;29;20189;-81
2021/08/13 16:56:45;;;;;;;11.87;7.60;;;28.20;99.90;;;;;;4916628;29;20735;-81
2021/08/13 16:59:11;;;;;;;10.27;7.37;;;28.20;99.90;;;;;;4917467;29;20189;-81
2021/08/13 17:01:37;;;;;;;11.77;6.80;;;28.10;99.90;;;;;;4916660;29;20229;-81
2021/08/13 17:04:03;;;;;;;12.57;6.60;;;28.00;99.90;;;;;;4918614;29;20749;-81
2021/08/13 17:06:29;;;;;;;9.50;7.43;;;28.10;99.90;;;;;;4918471;29;20442;-81
2021/08/13 17:08:55;;;;;;;10.80;8.30;;;28.00;99.90;;;;;;4920237;29;20444;-81
2021/08/13 17:11:20;;;;;;;16.53;7.53;;;28.00;99.90;;;;;;4917455;29;20216;-81
2021/08/13 17:13:46;;;;;;;9.60;7.53;;;28.00;99.90;;;;;;4911875;29;20202;-82
2021/08/13 17:16:11;;;;;;;8.83;8.03;;;27.90;99.90;;;;;;4911400;29;20716;-82
2021/08/13 17:18:37;;;;;;;12.43;8.00;;;27.90;99.90;;;;;;4900751;29;20266;-82
2021/08/13 17:21:02;;;;;;;10.30;7.07;;;27.80;99.90;;;;;;4901361;29;20206;-81
2021/08/13 17:23:28;;;;;;;12.73;8.63;;;27.80;99.90;;;;;;4915453;29;20210;-81